Time;durP1;ratioP1;P1;durP2;ratioP2;P2;SDS_P1;SDS_P2;PMS_P1;PMS_P2;Temp;Humidity;BMP_temperature;BMP_pressure;BME280_temperature;BME280_humidity;BME280_pressure;Samples;Min_cycle;Max_cycle;Signal;HPM_P1;HPM_P2
2021/07/30 00:07:22;;;;;;;5.97;2.72;;;16.10;99.90;;;;;;6712790;88;20197;-77
2021/07/30 00:17:23;;;;;;;3.40;2.00;;;16.00;99.90;;;;;;6719972;88;20193;-77
2021/07/30 00:27:23;;;;;;;7.05;2.58;;;16.10;99.90;;;;;;6721051;88;20193;-77
2021/07/30 00:37:24;;;;;;;4.65;2.33;;;16.10;99.90;;;;;;6720465;88;20189;-78
2021/07/30 00:47:26;;;;;;;5.62;2.20;;;16.20;99.90;;;;;;6704441;88;20652;-77
2021/07/30 00:57:28;;;;;;;4.47;2.53;;;16.00;99.90;;;;;;6715820;88;20198;-77
2021/07/30 01:07:28;;;;;;;7.72;2.55;;;16.00;99.90;;;;;;6719073;88;20264;-77
2021/07/30 01:17:29;;;;;;;5.60;2.37;;;16.00;99.90;;;;;;6727951;88;20609;-82
2021/07/30 01:27:29;;;;;;;7.00;2.87;;;15.80;99.90;;;;;;6729767;88;20221;-75
2021/07/30 01:37:32;;;;;;;4.45;2.70;;;15.70;99.90;;;;;;6719805;88;20219;-75
2021/07/30 01:47:34;;;;;;;8.50;2.70;;;15.50;99.90;;;;;;6719262;88;20209;-76
2021/07/30 01:57:35;;;;;;;5.97;3.00;;;15.50;99.90;;;;;;6718996;88;20614;-79
2021/07/30 02:07:37;;;;;;;6.17;2.87;;;15.40;99.90;;;;;;6719220;88;20248;-78
2021/07/30 02:17:38;;;;;;;6.05;2.75;;;15.40;99.90;;;;;;6720995;88;20506;-77
2021/07/30 02:28:19;;;;;;;7.30;3.60;;;15.30;99.90;;;;;;6761244;77;20874;-82
2021/07/30 02:38:20;;;;;;;7.60;3.00;;;15.20;99.90;;;;;;6715929;88;20187;-83
2021/07/30 02:48:20;;;;;;;7.10;3.15;;;15.10;99.90;;;;;;6699514;88;20159;-86
2021/07/30 02:58:21;;;;;;;7.50;3.05;;;15.10;99.90;;;;;;6765394;78;23549;-85
2021/07/30 03:19:23;;;;;;;5.43;2.70;;;15.00;99.90;;;;;;6718198;88;20488;-82
2021/07/30 03:29:24;;;;;;;4.65;2.60;;;15.00;99.90;;;;;;6717621;88;20181;-83
2021/07/30 03:39:24;;;;;;;6.60;2.90;;;14.80;99.90;;;;;;6718146;88;20214;-81
2021/07/30 03:49:25;;;;;;;8.23;3.20;;;14.80;99.90;;;;;;6681553;89;20211;-82
2021/07/30 03:59:26;;;;;;;5.35;3.28;;;14.80;99.90;;;;;;6681385;89;20253;-82
2021/07/30 04:19:29;;;;;;;5.60;3.22;;;14.60;99.90;;;;;;6698150;89;20186;-82
2021/07/30 04:29:30;;;;;;;5.53;3.12;;;14.60;99.90;;;;;;6699369;88;20219;-84
2021/07/30 04:39:31;;;;;;;5.57;3.08;;;14.60;99.90;;;;;;6701270;88;20170;-84
2021/07/30 04:49:31;;;;;;;7.10;3.20;;;14.60;99.90;;;;;;6682112;89;20242;-85
2021/07/30 04:59:32;;;;;;;8.50;3.20;;;14.60;99.90;;;;;;6682225;89;21003;-84
2021/07/30 05:30:38;;;;;;;6.70;3.17;;;14.80;99.90;;;;;;6755024;88;20257;-85
2021/07/30 05:40:59;;;;;;;5.50;3.15;;;14.90;99.90;;;;;;6758216;77;20185;-85
2021/07/30 05:51:20;;;;;;;4.37;2.83;;;15.20;99.90;;;;;;6847001;78;20199;-85
2021/07/30 06:02:01;;;;;;;6.10;2.50;;;15.40;99.90;;;;;;4801298;77;20157;-81
2021/07/30 06:12:02;;;;;;;10.50;2.70;;;15.90;99.90;;;;;;6767951;88;20178;-82
2021/07/30 06:22:03;;;;;;;5.70;2.00;;;17.10;99.90;;;;;;6764531;87;20775;-83
2021/07/30 06:32:03;;;;;;;4.07;2.00;;;17.70;99.90;;;;;;6761462;87;20169;-81
2021/07/30 06:42:04;;;;;;;3.58;2.05;;;18.40;99.90;;;;;;6745844;88;20172;-83
2021/07/30 06:52:08;;;;;;;3.80;1.90;;;18.80;99.90;;;;;;6746444;88;20247;-82
2021/07/30 07:02:08;;;;;;;3.92;1.95;;;19.30;99.90;;;;;;6728954;88;20253;-82
2021/07/30 07:12:09;;;;;;;3.10;1.75;;;19.70;99.90;;;;;;6731251;88;20171;-81
2021/07/30 07:22:09;;;;;;;3.50;1.80;;;19.80;99.90;;;;;;6729790;88;20244;-82
2021/07/30 07:32:10;;;;;;;5.07;1.87;;;20.40;99.90;;;;;;6728672;88;20225;-82
2021/07/30 07:42:10;;;;;;;3.72;1.60;;;20.90;99.90;;;;;;6731974;88;20204;-81
2021/07/30 07:52:11;;;;;;;3.37;1.80;;;21.20;99.90;;;;;;6724553;88;20194;-81
2021/07/30 08:02:12;;;;;;;3.58;1.65;;;21.80;99.90;;;;;;6727483;88;20190;-82
2021/07/30 08:12:12;;;;;;;4.22;1.62;;;21.90;99.90;;;;;;6728500;88;20178;-82
2021/07/30 08:32:17;;;;;;;6.60;1.67;;;22.90;99.90;;;;;;6707839;88;20578;-77
2021/07/30 08:42:19;;;;;;;4.00;1.67;;;23.80;99.80;;;;;;6717839;88;20632;-78
2021/07/30 08:52:27;;;;;;;3.00;1.70;;;24.10;98.40;;;;;;6717675;88;20312;-77
2021/07/30 09:02:28;;;;;;;3.70;1.70;;;24.50;97.90;;;;;;6704646;88;20174;-78
2021/07/30 09:12:30;;;;;;;5.22;1.70;;;24.70;96.30;;;;;;6709804;88;20210;-77
2021/07/30 09:22:51;;;;;;;4.82;2.10;;;25.10;94.90;;;;;;6720895;88;20338;-78
2021/07/30 09:32:54;;;;;;;3.03;1.77;;;25.20;94.10;;;;;;6719776;88;20188;-77
2021/07/30 09:42:55;;;;;;;;;;;25.20;93.70;;;;;;6719133;88;20654;-78
2021/07/30 09:53:01;;;;;;;2.85;1.60;;;26.00;92.30;;;;;;6703523;88;20079;-77
2021/07/30 10:03:03;;;;;;;2.62;1.60;;;25.50;92.00;;;;;;6715068;88;20210;-77
2021/07/30 10:13:09;;;;;;;3.45;1.70;;;25.80;91.90;;;;;;6717102;88;20215;-77
2021/07/30 10:23:14;;;;;;;5.00;1.92;;;27.30;90.70;;;;;;6701200;88;20268;-78
2021/07/30 10:33:15;;;;;;;3.10;1.67;;;25.90;91.60;;;;;;6700996;88;20317;-77
2021/07/30 10:43:16;;;;;;;2.77;1.63;;;25.60;91.60;;;;;;6702785;88;21228;-77
2021/07/30 10:53:38;;;;;;;4.12;2.20;;;26.40;90.60;;;;;;6702849;88;20205;-77
2021/07/30 11:03:51;;;;;;;5.93;2.10;;;26.00;91.90;;;;;;6703139;88;20202;-77
2021/07/30 11:13:52;;;;;;;5.20;2.00;;;25.70;91.50;;;;;;6702931;88;20700;-77
2021/07/30 11:23:52;;;;;;;4.10;1.80;;;27.00;89.00;;;;;;6704423;88;20210;-78
2021/07/30 11:33:53;;;;;;;4.60;2.00;;;26.90;89.40;;;;;;6712068;88;20210;-77
2021/07/30 11:43:58;;;;;;;3.28;1.92;;;26.30;89.70;;;;;;6721003;88;20197;-78
2021/07/30 11:53:58;;;;;;;3.17;1.95;;;26.20;90.20;;;;;;6708286;88;20563;-77
2021/07/30 12:04:11;;;;;;;2.90;1.90;;;26.50;91.30;;;;;;6715519;88;20223;-77
2021/07/30 12:14:12;;;;;;;4.35;2.50;;;27.40;88.90;;;;;;6709323;88;20210;-77
2021/07/30 12:24:12;;;;;;;3.65;2.05;;;28.80;84.50;;;;;;6722693;88;20291;-78
2021/07/30 12:34:16;;;;;;;3.70;2.05;;;28.20;86.10;;;;;;6712675;88;20326;-78
2021/07/30 12:44:18;;;;;;;4.72;1.95;;;27.80;87.10;;;;;;6715000;88;20208;-78
2021/07/30 12:54:19;;;;;;;4.62;2.25;;;28.30;86.40;;;;;;6721732;88;20652;-79
2021/07/30 13:04:19;;;;;;;4.70;2.20;;;28.70;84.00;;;;;;6729940;88;20193;-78
2021/07/30 13:14:20;;;;;;;5.15;2.03;;;27.60;85.60;;;;;;6707122;88;20219;-77
2021/07/30 13:24:21;;;;;;;4.47;2.20;;;28.10;84.60;;;;;;6703472;88;20207;-78
2021/07/30 13:34:22;;;;;;;4.53;2.20;;;27.70;85.30;;;;;;6702994;88;20218;-78
2021/07/30 13:44:22;;;;;;;6.00;2.20;;;29.10;81.70;;;;;;6702206;88;20201;-78
2021/07/30 13:54:23;;;;;;;4.03;2.53;;;27.60;83.10;;;;;;6703338;88;20648;-78
2021/07/30 14:04:23;;;;;;;4.62;2.40;;;27.60;84.40;;;;;;6699662;88;20222;-77
2021/07/30 14:14:24;;;;;;;4.20;2.20;;;28.20;82.10;;;;;;6703391;88;20194;-77
2021/07/30 14:24:24;;;;;;;5.95;2.45;;;27.10;83.70;;;;;;6707627;88;20704;-77
2021/07/30 14:34:25;;;;;;;4.50;2.30;;;27.20;84.90;;;;;;6723138;88;20236;-79
2021/07/30 14:44:25;;;;;;;5.22;2.30;;;28.30;83.30;;;;;;6726875;88;20210;-79
2021/07/30 14:54:27;;;;;;;6.25;3.20;;;27.30;84.00;;;;;;6726128;88;20490;-79
2021/07/30 15:04:28;;;;;;;4.68;2.28;;;27.30;84.10;;;;;;6717440;88;20306;-79
2021/07/30 15:14:29;;;;;;;4.45;2.50;;;26.80;83.00;;;;;;6731608;88;20181;-80
2021/07/30 15:24:29;;;;;;;4.47;2.57;;;26.50;85.00;;;;;;6734939;88;20725;-79
2021/07/30 15:34:30;;;;;;;4.07;2.47;;;26.10;84.80;;;;;;6729716;88;20182;-79
2021/07/30 15:44:30;;;;;;;4.50;2.67;;;25.80;85.20;;;;;;6731860;88;20214;-78
2021/07/30 15:54:31;;;;;;;4.90;2.70;;;25.80;86.10;;;;;;6723419;88;20181;-79
2021/07/30 16:04:32;;;;;;;6.25;2.92;;;26.20;86.90;;;;;;6730741;88;20169;-80
2021/07/30 16:14:32;;;;;;;4.45;2.60;;;26.00;89.30;;;;;;6728730;88;20162;-79
2021/07/30 16:24:33;;;;;;;4.22;2.75;;;25.50;90.80;;;;;;6721201;88;20288;-78
2021/07/30 16:34:34;;;;;;;6.15;2.90;;;25.50;90.90;;;;;;6727629;88;21075;-79
2021/07/30 16:44:36;;;;;;;4.20;2.10;;;25.60;91.40;;;;;;6723466;88;20214;-77
2021/07/30 16:54:36;;;;;;;4.28;1.98;;;25.90;90.90;;;;;;6723041;88;20530;-77
2021/07/30 17:04:37;;;;;;;2.90;1.85;;;25.30;91.60;;;;;;6729026;88;20740;-77
2021/07/30 17:14:40;;;;;;;4.30;1.80;;;25.10;91.80;;;;;;6735021;88;20296;-79
2021/07/30 17:24:41;;;;;;;4.93;1.92;;;24.80;92.60;;;;;;6730278;88;20179;-78
2021/07/30 17:34:41;;;;;;;5.90;1.60;;;24.80;93.00;;;;;;6726233;88;20275;-79
2021/07/30 17:44:42;;;;;;;3.83;1.62;;;24.90;93.20;;;;;;6736813;88;20174;-79
2021/07/30 17:54:42;;;;;;;5.00;2.80;;;24.50;93.40;;;;;;6732512;88;20755;-79
2021/07/30 18:04:43;;;;;;;2.83;1.70;;;24.80;93.00;;;;;;6721656;88;20245;-78
2021/07/30 18:14:44;;;;;;;3.85;1.60;;;24.60;92.80;;;;;;6721172;88;20669;-78
2021/07/30 18:24:44;;;;;;;3.55;2.08;;;24.40;93.70;;;;;;6725036;88;20206;-75
2021/07/30 18:34:47;;;;;;;4.97;1.50;;;24.10;94.30;;;;;;6727661;88;20317;-77
2021/07/30 18:44:47;;;;;;;4.50;1.58;;;23.60;94.50;;;;;;6726381;88;20395;-74
2021/07/30 18:54:48;;;;;;;2.42;1.50;;;23.50;94.80;;;;;;6725936;88;20324;-77
2021/07/30 19:04:48;;;;;;;3.00;1.40;;;23.20;95.70;;;;;;6723836;88;20199;-78
2021/07/30 19:14:49;;;;;;;3.78;1.50;;;23.00;96.30;;;;;;6723721;88;20219;-79
2021/07/30 19:24:49;;;;;;;4.30;1.60;;;22.90;96.40;;;;;;6724108;88;20230;-78
2021/07/30 19:34:50;;;;;;;3.35;1.90;;;23.00;96.60;;;;;;6726834;88;20588;-79
2021/07/30 19:44:50;;;;;;;5.97;1.58;;;22.70;97.30;;;;;;6721204;88;20329;-78
2021/07/30 19:54:51;;;;;;;3.85;1.17;;;21.90;99.90;;;;;;6722641;88;20791;-78
2021/07/30 20:04:58;;;;;;;6.53;1.23;;;21.50;99.90;;;;;;6732511;88;20335;-77
2021/07/30 20:14:58;;;;;;;3.22;0.93;;;21.40;99.00;;;;;;6727851;88;20230;-78
2021/07/30 20:24:59;;;;;;;5.12;0.80;;;21.50;96.50;;;;;;6730879;88;20189;-76
2021/07/30 20:34:59;;;;;;;5.62;0.77;;;21.40;95.10;;;;;;6717230;88;20616;-77
2021/07/30 20:45:00;;;;;;;3.17;0.68;;;21.30;94.40;;;;;;6716808;88;20215;-77
2021/07/30 20:55:04;;;;;;;3.35;0.60;;;21.10;94.00;;;;;;6716508;88;20257;-77
2021/07/30 21:05:05;;;;;;;;;;;20.80;94.40;;;;;;6716828;88;20188;-77
2021/07/30 21:15:06;;;;;;;2.55;0.80;;;20.50;94.50;;;;;;6702672;88;20531;-76
2021/07/30 21:25:07;;;;;;;3.33;0.90;;;20.30;94.60;;;;;;6699957;88;20600;-77
2021/07/30 21:35:08;;;;;;;5.78;0.80;;;20.30;94.90;;;;;;6703581;88;20341;-78
2021/07/30 21:45:09;;;;;;;2.78;0.70;;;20.20;94.90;;;;;;6699628;88;20349;-76
2021/07/30 21:55:09;;;;;;;2.83;0.70;;;20.10;94.80;;;;;;6699373;88;20683;-77
2021/07/30 22:05:11;;;;;;;5.47;0.80;;;20.00;95.00;;;;;;6700045;88;20243;-78
2021/07/30 22:15:11;;;;;;;2.17;0.70;;;20.00;95.30;;;;;;6699657;88;20363;-76
2021/07/30 22:25:12;;;;;;;5.07;0.70;;;19.70;96.10;;;;;;6700690;88;20261;-77
2021/07/30 22:35:13;;;;;;;3.00;0.77;;;19.60;96.50;;;;;;6703356;88;20234;-77
2021/07/30 22:45:14;;;;;;;2.65;0.70;;;19.30;97.20;;;;;;6703894;88;20571;-76
2021/07/30 22:55:14;;;;;;;2.03;0.77;;;19.30;97.10;;;;;;6703402;88;20222;-78
2021/07/30 23:05:15;;;;;;;4.22;0.82;;;19.20;97.60;;;;;;6702722;88;20197;-77
2021/07/30 23:15:16;;;;;;;3.17;0.95;;;19.20;97.50;;;;;;6702320;88;20586;-77
2021/07/30 23:25:16;;;;;;;2.92;0.70;;;19.00;98.20;;;;;;6701378;88;20221;-77
2021/07/30 23:35:17;;;;;;;2.90;0.80;;;19.00;98.50;;;;;;6711279;88;20295;-76
2021/07/30 23:45:17;;;;;;;3.50;1.23;;;19.00;98.90;;;;;;6707275;88;20614;-77
2021/07/30 23:55:18;;;;;;;5.37;0.88;;;19.00;98.90;;;;;;6702097;88;20555;-77
